Time;durP1;ratioP1;P1;durP2;ratioP2;P2;SDS_P1;SDS_P2;PMS_P1;PMS_P2;Temp;Humidity;BMP_temperature;BMP_pressure;BME280_temperature;BME280_humidity;BME280_pressure;Samples;Min_cycle;Max_cycle;Signal;HPM_P1;HPM_P2
2022/12/18 00:00:30;;;;;;;66.43;46.13;;;12.00;75.10;;;;;;4589371;19;19915;-31
2022/12/18 00:02:21;;;;;;;72.53;50.40;;;11.90;74.90;;;;;;4589444;19;20348;-30
2022/12/18 00:03:53;;;;;;;81.47;59.43;;;11.90;74.80;;;;;;4588141;19;20461;-31
2022/12/18 00:05:24;;;;;;;79.05;57.78;;;11.90;74.80;;;;;;4589419;19;20444;-32
2022/12/18 00:06:55;;;;;;;93.13;59.53;;;11.90;74.80;;;;;;4590716;19;20034;-32
2022/12/18 00:08:27;;;;;;;99.32;61.50;;;11.90;74.70;;;;;;4590275;19;20022;-29
2022/12/18 00:09:58;;;;;;;73.85;48.70;;;11.90;74.70;;;;;;4588994;19;20472;-28
2022/12/18 00:11:29;;;;;;;88.75;56.10;;;11.90;74.80;;;;;;4589901;19;20015;-31
2022/12/18 00:13:01;;;;;;;;;;;11.90;74.70;;;;;;4591167;19;20035;-32
2022/12/18 00:14:32;;;;;;;69.37;46.00;;;11.90;75.20;;;;;;4590239;19;19922;-31
2022/12/18 00:16:05;;;;;;;59.70;40.73;;;11.90;74.60;;;;;;4590233;19;20018;-31
2022/12/18 00:17:37;;;;;;;62.50;41.63;;;11.90;74.70;;;;;;4590183;19;20881;-30
2022/12/18 00:19:09;;;;;;;61.47;42.38;;;11.90;74.70;;;;;;4590009;19;20798;-34
2022/12/18 00:20:40;;;;;;;55.38;38.40;;;11.90;74.70;;;;;;4589282;19;20015;-28
2022/12/18 00:22:11;;;;;;;55.38;36.45;;;11.90;74.70;;;;;;4589631;19;20019;-28
2022/12/18 00:23:43;;;;;;;54.00;36.65;;;11.90;74.70;;;;;;4590336;19;20018;-30
2022/12/18 00:25:14;;;;;;;;;;;11.90;74.90;;;;;;4590813;19;20363;-30
2022/12/18 00:26:45;;;;;;;58.57;38.07;;;11.90;74.80;;;;;;4590134;19;19967;-28
2022/12/18 00:28:16;;;;;;;57.85;37.88;;;11.90;74.90;;;;;;4590325;19;20425;-30
2022/12/18 00:29:48;;;;;;;58.08;39.25;;;11.90;74.80;;;;;;4589981;19;20018;-31
2022/12/18 00:31:21;;;;;;;69.90;44.83;;;11.90;74.80;;;;;;4589973;19;20014;-32
2022/12/18 00:32:52;;;;;;;67.50;43.20;;;11.90;74.70;;;;;;4589837;19;20433;-29
2022/12/18 00:34:23;;;;;;;99.78;63.08;;;11.90;74.80;;;;;;4589996;19;20425;-29
2022/12/18 00:35:54;;;;;;;67.60;42.17;;;12.00;74.80;;;;;;4588798;19;20364;-29
2022/12/18 00:37:25;;;;;;;65.20;40.75;;;11.90;74.70;;;;;;4589480;19;20043;-32
2022/12/18 00:38:57;;;;;;;51.20;34.30;;;11.90;74.90;;;;;;4589960;19;20022;-30
2022/12/18 00:40:28;;;;;;;53.53;37.63;;;11.90;75.30;;;;;;4589910;19;20029;-28
2022/12/18 00:43:49;;;;;;;51.50;34.63;;;11.90;74.90;;;;;;4589658;19;20014;-32
2022/12/18 00:45:20;;;;;;;61.17;39.95;;;11.90;74.80;;;;;;4589417;19;20445;-30
2022/12/18 00:46:51;;;;;;;57.72;38.13;;;11.90;74.90;;;;;;4589902;19;20010;-34
2022/12/18 00:48:22;;;;;;;54.85;35.15;;;11.90;74.90;;;;;;4589575;19;20011;-28
2022/12/18 00:49:53;;;;;;;48.65;32.30;;;11.90;74.90;;;;;;4588562;19;20479;-30
2022/12/18 00:51:24;;;;;;;60.03;38.50;;;11.90;74.80;;;;;;4589042;19;20014;-28
2022/12/18 00:52:55;;;;;;;77.05;47.35;;;11.90;74.90;;;;;;4588769;19;20070;-31
2022/12/18 00:54:27;;;;;;;66.40;39.00;;;11.80;74.90;;;;;;4589291;19;20377;-31
2022/12/18 00:55:58;;;;;;;68.63;40.03;;;11.80;75.10;;;;;;4589617;19;20025;-29
2022/12/18 00:57:29;;;;;;;54.15;33.90;;;11.80;75.60;;;;;;4589211;19;20006;-30
2022/12/18 00:59:00;;;;;;;59.63;36.08;;;11.80;76.20;;;;;;4589396;19;20053;-30
2022/12/18 01:00:31;;;;;;;41.75;29.05;;;11.90;76.70;;;;;;4589369;19;20562;-30
2022/12/18 01:02:02;;;;;;;44.97;30.08;;;11.90;76.70;;;;;;4589221;19;20006;-29
2022/12/18 01:03:34;;;;;;;41.25;27.75;;;11.90;76.70;;;;;;4588148;19;20023;-30
2022/12/18 01:05:05;;;;;;;45.38;30.05;;;11.90;76.70;;;;;;4589575;19;20086;-29
2022/12/18 01:06:36;;;;;;;44.78;28.10;;;11.90;76.60;;;;;;4589300;19;20019;-30
2022/12/18 01:08:08;;;;;;;49.30;31.27;;;11.90;76.40;;;;;;4589218;19;20014;-31
2022/12/18 01:09:39;;;;;;;50.83;32.30;;;11.90;76.30;;;;;;4589369;19;20010;-30
2022/12/18 01:11:11;;;;;;;49.17;32.20;;;11.90;76.10;;;;;;4589122;19;20362;-29
2022/12/18 01:12:43;;;;;;;51.53;32.83;;;11.90;76.10;;;;;;4589173;19;20015;-31
2022/12/18 01:14:14;;;;;;;46.63;28.65;;;11.90;76.00;;;;;;4589307;19;20465;-29
2022/12/18 01:15:49;;;;;;;58.75;34.70;;;11.90;76.00;;;;;;4589192;19;20014;-30
2022/12/18 01:17:20;;;;;;;60.57;34.27;;;11.90;75.90;;;;;;4588978;19;20015;-30
2022/12/18 01:18:53;;;;;;;51.97;34.58;;;11.90;75.90;;;;;;4589347;19;20464;-29
2022/12/18 01:20:24;;;;;;;46.17;34.10;;;11.90;75.80;;;;;;4589137;19;20010;-30
2022/12/18 01:21:55;;;;;;;47.00;34.78;;;11.90;76.30;;;;;;4589226;19;20417;-29
2022/12/18 01:23:26;;;;;;;71.30;42.42;;;11.90;75.60;;;;;;4588251;19;20014;-30
2022/12/18 01:24:57;;;;;;;82.43;45.20;;;11.90;75.60;;;;;;4588986;19;20021;-30
2022/12/18 01:26:29;;;;;;;89.50;45.25;;;11.90;75.50;;;;;;4589047;19;20090;-30
2022/12/18 01:28:01;;;;;;;51.95;31.88;;;11.90;75.40;;;;;;4589369;19;20007;-30
2022/12/18 01:29:32;;;;;;;38.63;29.40;;;11.90;75.20;;;;;;4588884;19;20025;-31
2022/12/18 01:31:23;;;;;;;41.83;29.60;;;11.90;75.20;;;;;;4587920;19;20417;-29
2022/12/18 01:32:54;;;;;;;39.67;30.83;;;11.90;75.20;;;;;;4587716;19;20491;-30
2022/12/18 01:34:25;;;;;;;38.42;29.90;;;11.90;75.10;;;;;;4588625;19;20421;-35
2022/12/18 01:35:56;;;;;;;40.38;30.80;;;11.90;75.00;;;;;;4588715;19;20018;-30
2022/12/18 01:37:27;;;;;;;41.33;32.50;;;11.90;75.00;;;;;;4589026;19;20015;-32
2022/12/18 01:39:24;;;;;;;42.08;31.70;;;11.90;75.00;;;;;;4588667;19;20015;-30
2022/12/18 01:40:59;;;;;;;44.67;33.17;;;11.90;75.00;;;;;;4588435;19;20014;-29
2022/12/18 01:42:30;;;;;;;43.00;33.10;;;11.90;75.00;;;;;;4588214;19;20501;-29
2022/12/18 01:44:01;;;;;;;42.58;33.83;;;11.90;75.00;;;;;;4588657;19;20483;-30
2022/12/18 01:45:33;;;;;;;51.08;38.45;;;11.90;75.00;;;;;;4588852;19;20488;-29
2022/12/18 01:47:05;;;;;;;54.80;38.60;;;11.90;74.90;;;;;;4587547;19;20341;-30
2022/12/18 01:48:37;;;;;;;51.13;38.60;;;11.90;74.90;;;;;;4587378;19;20015;-31
2022/12/18 01:50:14;;;;;;;55.03;41.53;;;11.90;74.90;;;;;;4588180;19;21102;-29
2022/12/18 01:51:45;;;;;;;54.67;43.73;;;11.90;74.90;;;;;;4587092;19;20078;-29
2022/12/18 01:53:20;;;;;;;51.17;41.25;;;11.90;74.80;;;;;;4587661;19;21047;-28
2022/12/18 01:54:52;;;;;;;50.07;38.77;;;11.90;74.70;;;;;;4587219;19;20369;-32
2022/12/18 01:56:23;;;;;;;49.67;36.65;;;11.90;74.60;;;;;;4588123;19;20432;-33
2022/12/18 01:57:56;;;;;;;47.10;35.08;;;11.90;74.50;;;;;;4588600;19;20006;-29
2022/12/18 01:59:27;;;;;;;47.10;34.00;;;11.90;74.40;;;;;;4587300;19;20410;-30
2022/12/18 02:00:58;;;;;;;46.97;35.67;;;11.90;74.30;;;;;;4587267;19;21259;-31
2022/12/18 02:02:29;;;;;;;50.80;40.60;;;11.80;74.20;;;;;;4586210;19;20015;-33
2022/12/18 02:04:28;;;;;;;45.65;38.15;;;11.80;74.30;;;;;;4587138;19;20037;-29
2022/12/18 02:06:20;;;;;;;48.43;35.67;;;11.80;74.70;;;;;;4588403;19;20018;-31
2022/12/18 02:08:30;;;;;;;54.88;37.63;;;11.80;75.00;;;;;;4588663;19;20386;-30
2022/12/18 02:10:10;;;;;;;56.37;38.57;;;11.90;75.40;;;;;;4588122;19;20572;-31
2022/12/18 02:11:41;;;;;;;50.57;34.77;;;11.90;75.20;;;;;;4590599;19;20471;-31
2022/12/18 02:13:43;;;;;;;46.63;32.65;;;11.90;75.00;;;;;;4590620;19;20799;-28
2022/12/18 02:15:15;;;;;;;52.80;36.77;;;11.90;75.00;;;;;;4590699;19;20021;-30
2022/12/18 02:16:56;;;;;;;45.83;34.75;;;11.90;74.80;;;;;;4590553;19;20441;-30
2022/12/18 02:18:35;;;;;;;53.17;41.30;;;11.90;74.70;;;;;;4590886;19;20010;-31
2022/12/18 02:20:25;;;;;;;48.13;37.80;;;11.90;74.70;;;;;;4590468;19;21032;-30
2022/12/18 02:22:15;;;;;;;45.80;35.03;;;11.90;74.50;;;;;;4590229;19;20469;-31
2022/12/18 02:23:46;;;;;;;50.00;36.67;;;11.90;74.40;;;;;;4590352;19;20456;-30
2022/12/18 02:25:52;;;;;;;48.63;34.92;;;11.80;74.30;;;;;;4590236;19;20501;-34
2022/12/18 02:27:24;;;;;;;51.67;38.43;;;11.80;74.20;;;;;;4589894;19;20086;-34
2022/12/18 02:29:08;;;;;;;55.63;41.83;;;11.80;74.10;;;;;;4590123;19;21012;-29
2022/12/18 02:30:39;;;;;;;52.13;38.03;;;11.80;74.20;;;;;;4590588;19;20218;-33
2022/12/18 02:32:13;;;;;;;48.90;35.83;;;11.80;74.20;;;;;;4590073;19;20566;-30
2022/12/18 02:33:45;;;;;;;53.23;41.97;;;11.80;74.10;;;;;;4590161;19;20391;-29
2022/12/18 02:35:21;;;;;;;57.90;47.27;;;11.80;74.00;;;;;;4590134;19;20813;-31
2022/12/18 02:36:52;;;;;;;56.30;41.93;;;11.80;74.00;;;;;;4590062;19;20500;-33
2022/12/18 02:38:23;;;;;;;49.08;37.60;;;11.70;74.00;;;;;;4589823;19;20445;-29
2022/12/18 02:39:56;;;;;;;52.60;37.05;;;11.70;74.10;;;;;;4589948;19;20047;-30
2022/12/18 02:41:27;;;;;;;54.30;39.53;;;11.70;74.00;;;;;;4589678;19;20006;-29
2022/12/18 02:43:10;;;;;;;65.15;43.88;;;11.70;73.90;;;;;;4588992;19;20444;-29
2022/12/18 02:44:46;;;;;;;60.37;42.73;;;11.70;74.10;;;;;;4589682;19;20485;-30
2022/12/18 02:46:25;;;;;;;64.33;43.10;;;11.70;73.90;;;;;;4589459;19;20461;-29
2022/12/18 02:47:56;;;;;;;59.43;42.43;;;11.70;73.90;;;;;;4589924;19;20445;-30
2022/12/18 02:49:56;;;;;;;60.05;43.38;;;11.70;73.90;;;;;;4590040;19;20433;-28
2022/12/18 02:51:32;;;;;;;53.67;38.23;;;11.70;74.00;;;;;;4590003;19;20011;-29
2022/12/18 02:53:31;;;;;;;51.87;35.20;;;11.70;73.90;;;;;;4589414;19;20449;-30
2022/12/18 02:55:08;;;;;;;50.97;34.27;;;11.70;73.90;;;;;;4589429;19;20449;-28
2022/12/18 02:56:44;;;;;;;53.57;37.37;;;11.70;73.90;;;;;;4589519;19;20473;-31
2022/12/18 02:58:38;;;;;;;56.63;39.67;;;11.70;73.80;;;;;;4589517;19;20432;-31
2022/12/18 03:00:16;;;;;;;56.77;40.30;;;11.70;73.70;;;;;;4589503;19;20429;-31
2022/12/18 03:01:50;;;;;;;58.33;41.33;;;11.70;73.70;;;;;;4589205;19;20440;-32
2022/12/18 03:03:47;;;;;;;55.47;40.77;;;11.70;73.70;;;;;;4587496;19;20537;-30
2022/12/18 03:05:24;;;;;;;53.63;37.83;;;11.70;73.80;;;;;;4589257;19;20494;-31
2022/12/18 03:06:59;;;;;;;54.33;38.10;;;11.70;73.80;;;;;;4589050;19;20441;-30
2022/12/18 03:08:39;;;;;;;54.10;40.00;;;11.70;73.80;;;;;;4589250;19;20777;-30
2022/12/18 03:10:13;;;;;;;57.17;41.10;;;11.70;73.70;;;;;;4589014;19;20449;-32
2022/12/18 03:13:40;;;;;;;53.00;39.40;;;11.70;73.50;;;;;;4588974;19;20777;-30
2022/12/18 03:15:21;;;;;;;55.20;39.67;;;11.70;73.60;;;;;;4588882;19;20457;-33
2022/12/18 03:16:53;;;;;;;54.53;38.83;;;11.70;73.70;;;;;;4589454;19;20449;-31
2022/12/18 03:18:30;;;;;;;51.92;38.15;;;11.60;73.50;;;;;;4589002;19;20513;-30
2022/12/18 03:20:13;;;;;;;54.10;38.07;;;11.60;73.50;;;;;;4589055;19;20028;-30
2022/12/18 03:21:46;;;;;;;53.70;37.60;;;11.60;74.00;;;;;;4589098;19;20436;-30
2022/12/18 03:23:19;;;;;;;48.90;34.97;;;11.60;74.90;;;;;;4587746;19;20014;-33
2022/12/18 03:24:51;;;;;;;43.93;33.23;;;11.70;75.50;;;;;;4588922;19;20460;-30
2022/12/18 03:26:23;;;;;;;41.60;31.30;;;11.70;75.20;;;;;;4589012;19;21205;-30
2022/12/18 03:27:56;;;;;;;44.10;31.10;;;11.70;75.00;;;;;;4588922;19;20473;-31
2022/12/18 03:29:38;;;;;;;43.77;32.77;;;11.70;75.10;;;;;;4588812;19;20440;-33
2022/12/18 03:31:10;;;;;;;43.70;31.87;;;11.70;75.00;;;;;;4588959;19;20428;-34
2022/12/18 03:33:00;;;;;;;;;;;11.70;74.80;;;;;;4589785;19;20421;-30
2022/12/18 03:34:33;;;;;;;44.63;29.83;;;11.70;74.70;;;;;;4588537;19;19936;-31
2022/12/18 03:36:04;;;;;;;45.00;32.37;;;11.70;74.70;;;;;;4588732;19;20425;-28
2022/12/18 03:37:37;;;;;;;50.63;37.72;;;11.70;74.80;;;;;;4588672;19;20497;-31
2022/12/18 03:39:08;;;;;;;47.03;35.47;;;11.70;74.90;;;;;;4588599;19;20015;-30
2022/12/18 03:40:53;;;;;;;50.28;38.20;;;11.70;74.80;;;;;;4588734;19;20470;-30
2022/12/18 03:42:37;;;;;;;52.30;39.47;;;11.70;74.80;;;;;;4589049;19;20010;-29
2022/12/18 03:44:29;;;;;;;49.80;39.20;;;11.70;74.90;;;;;;4589710;19;20482;-30
2022/12/18 03:46:24;;;;;;;60.50;47.83;;;11.70;74.60;;;;;;4590866;19;20452;-29
2022/12/18 03:48:14;;;;;;;87.60;65.13;;;11.70;74.50;;;;;;4588840;19;20006;-29
2022/12/18 03:50:04;;;;;;;75.93;56.60;;;11.70;74.50;;;;;;4589008;19;20551;-30
2022/12/18 03:51:44;;;;;;;122.17;76.37;;;11.70;74.50;;;;;;4588463;19;20425;-32
2022/12/18 03:53:29;;;;;;;144.60;90.93;;;11.70;74.50;;;;;;4588350;19;20477;-30
2022/12/18 03:55:01;;;;;;;133.63;81.93;;;11.70;74.40;;;;;;4588318;19;20510;-29
2022/12/18 03:56:36;;;;;;;134.40;80.72;;;11.70;75.00;;;;;;4588654;19;20436;-31
2022/12/18 03:58:07;;;;;;;114.13;69.83;;;11.70;74.50;;;;;;4588479;19;20352;-29
2022/12/18 03:59:39;;;;;;;124.20;74.60;;;11.70;74.40;;;;;;4588231;19;20556;-29
2022/12/18 04:01:10;;;;;;;178.10;99.05;;;11.70;74.40;;;;;;4588281;19;20434;-32
2022/12/18 04:02:48;;;;;;;226.60;125.45;;;11.60;74.30;;;;;;4587538;19;20050;-28
2022/12/18 04:04:19;;;;;;;298.17;159.67;;;11.70;74.40;;;;;;4588073;19;20022;-29
2022/12/18 04:05:51;;;;;;;299.73;162.48;;;11.70;74.40;;;;;;4587910;19;21056;-28
2022/12/18 04:07:22;;;;;;;248.52;133.18;;;11.70;74.40;;;;;;4588300;19;20017;-30
2022/12/18 04:08:53;;;;;;;200.50;112.15;;;11.70;74.40;;;;;;4588165;19;20460;-32
2022/12/18 04:10:24;;;;;;;202.75;113.32;;;11.70;74.40;;;;;;4588065;19;20010;-30
2022/12/18 04:11:55;;;;;;;190.35;105.20;;;11.70;74.40;;;;;;4587733;19;20011;-31
2022/12/18 04:13:34;;;;;;;185.40;100.63;;;11.70;74.50;;;;;;4587837;19;20081;-32
2022/12/18 04:15:06;;;;;;;116.23;68.43;;;11.70;74.40;;;;;;4587997;19;20561;-28
2022/12/18 04:16:37;;;;;;;;;;;11.70;74.30;;;;;;4588606;19;21060;-30
2022/12/18 04:18:09;;;;;;;90.25;54.95;;;11.70;74.30;;;;;;4587827;19;19926;-31
2022/12/18 04:19:40;;;;;;;68.85;42.22;;;11.70;74.40;;;;;;4587514;19;20006;-29
2022/12/18 04:21:11;;;;;;;79.40;50.42;;;11.70;74.30;;;;;;4587712;19;20010;-30
2022/12/18 04:22:43;;;;;;;97.45;59.88;;;11.70;74.40;;;;;;4587269;19;20098;-29
2022/12/18 04:24:14;;;;;;;167.95;102.15;;;11.70;74.30;;;;;;4587835;19;20017;-30
2022/12/18 04:25:46;;;;;;;122.18;75.90;;;11.70;74.30;;;;;;4587784;19;20014;-32
2022/12/18 04:27:18;;;;;;;77.30;51.07;;;11.60;74.30;;;;;;4588159;19;20021;-32
2022/12/18 04:28:49;;;;;;;94.88;58.80;;;11.60;74.10;;;;;;4587631;19;21047;-31
2022/12/18 04:30:20;;;;;;;89.05;58.92;;;11.60;74.10;;;;;;4587874;19;20022;-31
2022/12/18 04:31:51;;;;;;;81.45;51.80;;;11.60;74.10;;;;;;4588165;19;20090;-29
2022/12/18 04:33:22;;;;;;;64.82;43.38;;;11.60;74.10;;;;;;4586620;19;20503;-31
2022/12/18 04:34:53;;;;;;;62.13;42.60;;;11.60;74.10;;;;;;4587636;19;20014;-29
2022/12/18 04:36:25;;;;;;;72.43;48.10;;;11.60;74.20;;;;;;4589787;19;20092;-32
2022/12/18 04:37:56;;;;;;;75.20;50.10;;;11.60;74.30;;;;;;4589832;19;20015;-28
2022/12/18 04:39:27;;;;;;;80.47;55.00;;;11.60;74.50;;;;;;4589732;19;20010;-31
2022/12/18 04:40:58;;;;;;;76.25;53.28;;;11.60;75.20;;;;;;4589430;19;20037;-31
2022/12/18 04:42:29;;;;;;;62.95;46.95;;;11.60;75.30;;;;;;4589830;19;20010;-29
2022/12/18 04:44:00;;;;;;;56.30;41.03;;;11.60;75.60;;;;;;4589689;19;20117;-31
2022/12/18 04:45:32;;;;;;;47.90;35.47;;;11.70;75.70;;;;;;4589553;19;20015;-29
2022/12/18 04:47:03;;;;;;;;;;;11.70;75.90;;;;;;4589292;19;20032;-30
2022/12/18 04:48:36;;;;;;;57.10;41.80;;;11.70;75.20;;;;;;4589149;19;20328;-30
2022/12/18 04:50:08;;;;;;;54.80;41.50;;;11.70;75.10;;;;;;4589843;19;20017;-30
2022/12/18 04:51:39;;;;;;;57.10;44.17;;;11.60;75.00;;;;;;4589473;19;20473;-32
2022/12/18 04:53:10;;;;;;;54.08;41.72;;;11.70;75.20;;;;;;4589606;19;20020;-30
2022/12/18 04:54:41;;;;;;;51.78;40.33;;;11.60;75.10;;;;;;4589883;19;20010;-29
2022/12/18 04:56:14;;;;;;;47.38;35.28;;;11.60;75.10;;;;;;4589443;19;20006;-32
2022/12/18 04:57:45;;;;;;;48.90;37.30;;;11.60;75.00;;;;;;4589228;19;20014;-29
2022/12/18 04:59:16;;;;;;;50.90;38.83;;;11.60;74.90;;;;;;4589613;19;20463;-29
2022/12/18 05:00:47;;;;;;;52.15;39.30;;;11.60;74.80;;;;;;4589499;19;20356;-28
2022/12/18 05:02:18;;;;;;;53.88;41.75;;;11.60;74.80;;;;;;4588884;19;20022;-30
2022/12/18 05:03:51;;;;;;;51.40;38.78;;;11.60;74.80;;;;;;4588089;19;20471;-31
2022/12/18 05:05:22;;;;;;;47.63;35.30;;;11.60;74.80;;;;;;4587980;19;20029;-32
2022/12/18 05:06:53;;;;;;;45.50;33.92;;;11.60;74.70;;;;;;4588859;19;20437;-29
2022/12/18 05:08:25;;;;;;;42.15;32.30;;;11.60;74.60;;;;;;4589238;19;20080;-32
2022/12/18 05:09:56;;;;;;;45.15;32.22;;;11.60;74.60;;;;;;4588483;19;20024;-28
2022/12/18 05:11:27;;;;;;;43.92;31.88;;;11.70;74.60;;;;;;4588993;19;20011;-27
2022/12/18 05:12:58;;;;;;;45.42;33.05;;;11.70;74.40;;;;;;4589621;19;20006;-30
2022/12/18 05:14:29;;;;;;;41.42;30.33;;;11.70;74.40;;;;;;4589325;19;20011;-30
2022/12/18 05:16:00;;;;;;;44.75;31.70;;;11.70;74.10;;;;;;4588839;19;20345;-32
2022/12/18 05:17:32;;;;;;;44.22;32.78;;;11.80;73.80;;;;;;4588363;19;20022;-29
2022/12/18 05:19:03;;;;;;;44.88;33.17;;;11.90;73.80;;;;;;4588602;19;20014;-29
2022/12/18 05:20:34;;;;;;;46.53;35.20;;;11.90;73.70;;;;;;4589572;19;20015;-29
2022/12/18 05:22:05;;;;;;;45.67;33.63;;;11.90;73.70;;;;;;4590038;19;20393;-30
2022/12/18 05:23:36;;;;;;;44.90;34.33;;;11.90;74.00;;;;;;4587915;19;20003;-29
2022/12/18 05:25:08;;;;;;;41.95;31.92;;;11.90;73.70;;;;;;4588205;19;20074;-29
2022/12/18 05:26:39;;;;;;;41.63;32.90;;;11.90;73.60;;;;;;4588304;19;20043;-28
2022/12/18 05:28:10;;;;;;;41.92;31.67;;;11.20;73.10;;;;;;4588231;19;20467;-28
2022/12/18 05:30:00;;;;;;;45.63;32.10;;;8.80;77.60;;;;;;4588187;19;20018;-28
2022/12/18 05:31:32;;;;;;;47.70;32.70;;;7.30;81.70;;;;;;4588023;19;20511;-28
2022/12/18 05:33:03;;;;;;;50.20;32.50;;;6.70;83.30;;;;;;4587981;19;20457;-31
2022/12/18 05:34:34;;;;;;;48.85;32.63;;;6.40;84.30;;;;;;4588268;19;20019;-29
2022/12/18 05:36:07;;;;;;;48.03;32.35;;;6.10;84.70;;;;;;4588162;19;20468;-30
2022/12/18 05:37:38;;;;;;;49.97;33.40;;;6.00;85.20;;;;;;4588059;19;20018;-28
2022/12/18 05:39:09;;;;;;;49.50;32.78;;;5.90;85.60;;;;;;4589929;19;20874;-30
2022/12/18 05:40:42;;;;;;;50.67;34.50;;;5.80;85.90;;;;;;4589807;19;20073;-28
2022/12/18 05:42:14;;;;;;;52.20;35.17;;;5.70;86.10;;;;;;4590253;19;20010;-28
2022/12/18 05:43:45;;;;;;;59.13;39.50;;;5.70;86.20;;;;;;4588270;19;20018;-27
2022/12/18 05:45:16;;;;;;;63.67;47.42;;;5.60;86.20;;;;;;4592739;19;20074;-31
2022/12/18 05:46:47;;;;;;;64.32;46.38;;;5.60;86.60;;;;;;4594521;19;20460;-30
2022/12/18 05:48:19;;;;;;;58.50;42.45;;;5.50;86.60;;;;;;4593182;19;20010;-28
2022/12/18 05:49:50;;;;;;;65.55;47.65;;;5.50;86.80;;;;;;4593415;19;20078;-28
2022/12/18 05:51:21;;;;;;;62.60;45.88;;;5.50;86.90;;;;;;4593407;19;20012;-29
2022/12/18 05:52:53;;;;;;;63.47;46.92;;;5.50;86.90;;;;;;4592304;19;20014;-28
2022/12/18 05:54:26;;;;;;;63.22;45.30;;;5.50;86.70;;;;;;4593101;19;20361;-35
2022/12/18 05:56:00;;;;;;;65.35;47.78;;;5.50;86.60;;;;;;4595553;19;20015;-27
2022/12/18 05:57:31;;;;;;;63.70;45.80;;;5.50;86.80;;;;;;4594192;19;20082;-29
2022/12/18 05:59:03;;;;;;;59.08;44.60;;;5.50;86.80;;;;;;4595576;19;20445;-27
2022/12/18 06:00:35;;;;;;;69.55;47.70;;;5.40;87.10;;;;;;4595154;19;20022;-30
2022/12/18 06:02:07;;;;;;;69.70;50.22;;;5.50;87.20;;;;;;4595516;19;20017;-28
2022/12/18 06:03:38;;;;;;;;;;;5.60;87.30;;;;;;4592846;19;20352;-30
2022/12/18 06:05:10;;;;;;;75.50;54.50;;;6.90;84.80;;;;;;4593579;19;20240;-32
2022/12/18 06:06:41;;;;;;;67.80;48.47;;;8.10;81.90;;;;;;4595390;19;20507;-29
2022/12/18 06:08:13;;;;;;;66.95;46.30;;;8.90;80.00;;;;;;4594064;19;20501;-32
2022/12/18 06:09:44;;;;;;;59.53;44.38;;;9.40;78.70;;;;;;4595323;19;20400;-29
2022/12/18 06:11:19;;;;;;;65.85;46.03;;;9.80;78.00;;;;;;4593833;19;20475;-29
2022/12/18 06:12:51;;;;;;;66.77;45.23;;;10.00;77.20;;;;;;4594493;19;20010;-29
2022/12/18 06:14:22;;;;;;;71.25;45.08;;;10.30;76.60;;;;;;4594106;19;20560;-30
2022/12/18 06:15:53;;;;;;;64.60;45.55;;;10.40;76.20;;;;;;4593960;19;20790;-29
2022/12/18 06:17:28;;;;;;;65.57;45.80;;;10.60;75.90;;;;;;4595046;19;20010;-30
2022/12/18 06:19:00;;;;;;;63.77;46.57;;;10.70;75.70;;;;;;4594976;19;20340;-30
2022/12/18 06:20:31;;;;;;;;;;;10.70;75.40;;;;;;4594605;19;20449;-28
2022/12/18 06:22:03;;;;;;;58.63;41.50;;;10.90;75.30;;;;;;4595592;19;19982;-30
2022/12/18 06:23:34;;;;;;;56.00;42.88;;;10.80;75.20;;;;;;4592956;19;20480;-29
2022/12/18 06:25:05;;;;;;;60.45;41.55;;;10.90;74.90;;;;;;4592870;19;20482;-30
2022/12/18 06:26:38;;;;;;;54.97;38.63;;;11.00;74.70;;;;;;4594702;19;20038;-30
2022/12/18 06:28:09;;;;;;;56.27;38.83;;;11.00;74.50;;;;;;4594041;19;20532;-28
2022/12/18 06:29:41;;;;;;;52.97;35.65;;;11.10;74.30;;;;;;4591981;19;20471;-31
2022/12/18 06:31:12;;;;;;;53.30;34.78;;;11.10;74.30;;;;;;4592257;19;20018;-29
2022/12/18 06:32:43;;;;;;;49.90;35.00;;;11.20;74.40;;;;;;4592564;19;20053;-28
2022/12/18 06:34:14;;;;;;;48.55;34.15;;;11.30;74.40;;;;;;4592438;19;20034;-31
2022/12/18 06:35:46;;;;;;;48.15;34.08;;;11.30;74.40;;;;;;4592359;19;20019;-29
2022/12/18 06:37:17;;;;;;;48.75;34.15;;;11.40;74.50;;;;;;4592246;19;20015;-30
2022/12/18 06:38:48;;;;;;;57.90;39.80;;;11.50;74.20;;;;;;4592373;19;20014;-31
2022/12/18 06:40:19;;;;;;;73.90;42.88;;;11.50;74.20;;;;;;4592608;19;20480;-30
2022/12/18 06:41:50;;;;;;;85.03;51.38;;;11.50;74.30;;;;;;4592340;19;20015;-30
2022/12/18 06:43:21;;;;;;;77.88;44.20;;;11.50;74.40;;;;;;4591266;19;20010;-29
2022/12/18 06:44:53;;;;;;;68.57;39.42;;;11.50;74.50;;;;;;4592536;19;20078;-32
2022/12/18 06:46:24;;;;;;;63.45;36.47;;;11.50;74.60;;;;;;4592100;19;20106;-28
2022/12/18 06:47:55;;;;;;;63.50;37.75;;;11.60;74.60;;;;;;4592164;19;20027;-30
2022/12/18 06:49:27;;;;;;;60.05;38.10;;;11.60;74.50;;;;;;4591866;19;20467;-29
2022/12/18 06:50:58;;;;;;;51.08;33.78;;;11.60;74.50;;;;;;4592445;19;20018;-27
2022/12/18 06:52:31;;;;;;;56.25;34.40;;;11.70;74.50;;;;;;4590827;19;20363;-27
2022/12/18 06:54:03;;;;;;;54.07;34.93;;;11.70;74.50;;;;;;4590849;19;20070;-30
2022/12/18 06:55:34;;;;;;;59.55;39.55;;;11.70;74.50;;;;;;4591167;19;20425;-30
2022/12/18 06:57:05;;;;;;;85.18;54.85;;;11.70;74.60;;;;;;4591611;19;20052;-29
2022/12/18 06:58:38;;;;;;;79.45;54.97;;;11.70;74.80;;;;;;4588617;19;20018;-30
2022/12/18 07:00:10;;;;;;;100.03;59.90;;;11.70;74.80;;;;;;4591414;19;20620;-33
2022/12/18 07:01:41;;;;;;;92.47;55.03;;;11.70;74.80;;;;;;4592403;19;20547;-29
2022/12/18 07:03:13;;;;;;;86.13;51.83;;;11.70;74.80;;;;;;4589176;19;20539;-29
2022/12/18 07:04:44;;;;;;;70.28;46.53;;;11.70;74.90;;;;;;4591232;19;20014;-30
2022/12/18 07:06:17;;;;;;;68.32;43.00;;;11.70;75.00;;;;;;4589927;19;20006;-28
2022/12/18 07:07:48;;;;;;;64.60;40.43;;;11.70;74.90;;;;;;4590586;19;20018;-30
2022/12/18 07:09:20;;;;;;;64.93;39.20;;;11.70;75.10;;;;;;4592753;19;20503;-30
2022/12/18 07:10:51;;;;;;;67.38;41.53;;;11.70;75.10;;;;;;4592530;19;20010;-29
2022/12/18 07:12:23;;;;;;;65.63;39.70;;;11.70;75.20;;;;;;4592423;19;20040;-33
2022/12/18 07:13:54;;;;;;;63.78;41.05;;;11.70;75.20;;;;;;4591768;19;20684;-31
2022/12/18 07:15:25;;;;;;;71.90;45.63;;;11.70;75.20;;;;;;4591402;19;20585;-30
2022/12/18 07:16:56;;;;;;;72.80;45.78;;;11.70;75.10;;;;;;4590832;19;20480;-30
2022/12/18 07:18:27;;;;;;;67.05;44.72;;;11.70;75.20;;;;;;4589870;19;20014;-31
2022/12/18 07:19:58;;;;;;;64.43;43.30;;;11.70;75.50;;;;;;4587580;19;20065;-28
2022/12/18 07:21:30;;;;;;;65.72;41.92;;;11.70;75.50;;;;;;4588034;19;20022;-28
2022/12/18 07:23:05;;;;;;;64.30;41.95;;;11.60;75.40;;;;;;4588717;19;20018;-28
2022/12/18 07:24:36;;;;;;;62.33;39.17;;;11.60;75.40;;;;;;4591549;19;20014;-31
2022/12/18 07:26:12;;;;;;;58.75;37.30;;;11.60;75.40;;;;;;4591627;19;20476;-32
2022/12/18 07:27:43;;;;;;;64.83;40.83;;;11.60;75.70;;;;;;4591930;19;20014;-32
2022/12/18 07:29:14;;;;;;;68.35;42.55;;;11.60;75.50;;;;;;4591328;19;20499;-28
2022/12/18 07:30:45;;;;;;;69.60;44.50;;;11.70;75.50;;;;;;4591187;19;20021;-32
2022/12/18 07:32:16;;;;;;;68.53;43.03;;;11.70;75.40;;;;;;4590547;19;20365;-28
2022/12/18 07:33:47;;;;;;;110.68;86.28;;;11.70;75.20;;;;;;4589400;19;20029;-30
2022/12/18 07:35:19;;;;;;;118.30;98.88;;;11.70;75.10;;;;;;4589949;19;20047;-29
2022/12/18 07:36:50;;;;;;;99.18;74.70;;;11.40;75.70;;;;;;4590248;19;20447;-32
2022/12/18 07:38:21;;;;;;;85.75;58.90;;;11.50;75.80;;;;;;4589104;19;20043;-29
2022/12/18 07:39:53;;;;;;;82.67;55.37;;;11.60;75.60;;;;;;4589566;19;20026;-28
2022/12/18 07:41:24;;;;;;;78.10;50.92;;;11.70;75.50;;;;;;4592544;19;20497;-32
2022/12/18 07:42:55;;;;;;;111.22;63.70;;;11.70;75.40;;;;;;4589697;19;20017;-30
2022/12/18 07:44:26;;;;;;;146.75;79.53;;;11.80;75.20;;;;;;4590923;19;20023;-28
2022/12/18 07:45:58;;;;;;;145.27;75.35;;;11.80;75.20;;;;;;4590810;19;20066;-28
2022/12/18 07:47:29;;;;;;;127.25;67.50;;;11.80;75.10;;;;;;4590837;19;20460;-34
2022/12/18 07:49:00;;;;;;;93.07;54.17;;;11.80;75.10;;;;;;4590110;19;20480;-30
2022/12/18 07:50:31;;;;;;;88.60;58.13;;;11.80;75.20;;;;;;4589712;19;20562;-29
2022/12/18 07:52:02;;;;;;;73.18;50.22;;;11.90;75.20;;;;;;4589539;19;20010;-31
2022/12/18 07:53:34;;;;;;;144.63;115.38;;;11.90;75.10;;;;;;4589425;19;20006;-31
2022/12/18 07:55:06;;;;;;;97.78;71.47;;;11.90;75.20;;;;;;4589402;19;20459;-28
2022/12/18 07:56:37;;;;;;;79.88;55.35;;;11.80;75.00;;;;;;4588105;19;20027;-30
2022/12/18 07:58:08;;;;;;;64.50;45.55;;;11.90;75.10;;;;;;4591868;19;20499;-28
2022/12/18 07:59:39;;;;;;;74.05;50.50;;;11.90;75.20;;;;;;4589982;19;20100;-31